createdAt,value
2018-06-15T00:00:02.006Z,0
2018-06-15T00:01:10.903Z,0
2018-06-15T00:02:20.060Z,0
2018-06-15T00:03:29.734Z,0
2018-06-15T00:04:39.150Z,0
2018-06-15T00:05:48.303Z,0
2018-06-15T00:06:57.712Z,0
2018-06-15T00:08:06.609Z,0
2018-06-15T00:09:15.809Z,0
2018-06-15T00:10:25.748Z,0
2018-06-15T00:11:34.910Z,0
2018-06-15T00:12:44.624Z,0
2018-06-15T00:13:54.051Z,0
2018-06-15T00:15:03.227Z,0
2018-06-15T00:16:12.661Z,0
2018-06-15T00:17:21.806Z,0
2018-06-15T00:18:31.212Z,0
2018-06-15T00:19:40.909Z,0
2018-06-15T00:20:50.576Z,0
2018-06-15T00:21:59.482Z,0
2018-06-15T00:23:08.380Z,0
2018-06-15T00:24:18.324Z,0
2018-06-15T00:25:27.490Z,0
2018-06-15T00:26:37.146Z,0
2018-06-15T00:27:46.081Z,0
2018-06-15T00:28:55.239Z,0
2018-06-15T00:30:04.649Z,0
2018-06-15T00:31:14.078Z,0
2018-06-15T00:32:23.770Z,0
2018-06-15T00:33:32.923Z,0
2018-06-15T00:34:42.348Z,0
2018-06-15T00:35:51.498Z,0
2018-06-15T00:37:00.414Z,0
2018-06-15T00:38:10.109Z,0
2018-06-15T00:39:19.532Z,0
2018-06-15T00:40:28.948Z,0
2018-06-15T00:41:38.113Z,0
2018-06-15T00:42:47.272Z,0
2018-06-15T00:43:56.704Z,0
2018-06-15T00:45:06.133Z,0
2018-06-15T00:46:15.558Z,0
2018-06-15T00:47:24.972Z,0
2018-06-15T00:48:34.385Z,0
2018-06-15T00:49:43.537Z,0
2018-06-15T00:50:52.688Z,0
2018-06-15T00:52:01.844Z,0
2018-06-15T00:53:11.261Z,0
2018-06-15T00:54:20.159Z,0
2018-06-15T00:55:29.314Z,0
2018-06-15T00:56:38.513Z,0
2018-06-15T00:57:47.944Z,0
2018-06-15T00:58:57.365Z,0
2018-06-15T01:00:06.788Z,0
2018-06-15T01:01:16.217Z,0
2018-06-15T01:02:25.640Z,0
2018-06-15T01:03:34.547Z,0
2018-06-15T01:04:43.959Z,0
2018-06-15T01:05:53.132Z,0
2018-06-15T01:07:02.550Z,0
2018-06-15T01:08:12.219Z,0
2018-06-15T01:09:21.893Z,0
2018-06-15T01:10:31.047Z,0
2018-06-15T01:11:39.709Z,0
2018-06-15T01:12:49.132Z,0
2018-06-15T01:13:58.283Z,0
2018-06-15T01:15:08.283Z,0
2018-06-15T01:16:18.209Z,0
2018-06-15T01:17:27.644Z,0
2018-06-15T01:18:37.461Z,0
2018-06-15T01:19:46.641Z,0
2018-06-15T01:20:56.312Z,0
2018-06-15T01:22:05.733Z,0
2018-06-15T01:23:15.403Z,0
2018-06-15T01:24:24.873Z,0
2018-06-15T01:25:34.299Z,0
2018-06-15T01:26:43.466Z,0
2018-06-15T01:27:53.129Z,0
2018-06-15T01:29:02.536Z,0
2018-06-15T01:30:11.960Z,0
2018-06-15T01:31:21.116Z,0
2018-06-15T01:32:30.547Z,0
2018-06-15T01:33:39.795Z,0
2018-06-15T01:34:49.217Z,0
2018-06-15T01:35:58.627Z,0
2018-06-15T01:37:07.787Z,0
2018-06-15T01:38:17.738Z,0
2018-06-15T01:39:27.166Z,0
2018-06-15T01:40:36.865Z,0
2018-06-15T01:41:46.536Z,0
2018-06-15T01:42:56.457Z,0
2018-06-15T01:44:05.598Z,0
2018-06-15T01:45:14.761Z,0
2018-06-15T01:46:24.184Z,0
2018-06-15T01:47:33.379Z,0
2018-06-15T01:48:43.336Z,0
2018-06-15T01:49:53.013Z,0
2018-06-15T01:51:01.921Z,0
2018-06-15T01:52:11.356Z,0
2018-06-15T01:53:20.534Z,0
2018-06-15T01:54:29.495Z,0
2018-06-15T01:55:38.918Z,0
2018-06-15T01:56:48.581Z,0
2018-06-15T01:57:57.990Z,0
2018-06-15T01:59:07.666Z,0
2018-06-15T02:00:16.837Z,0
2018-06-15T02:01:27.373Z,0
2018-06-15T02:02:37.155Z,0
2018-06-15T02:03:47.094Z,0
2018-06-15T02:04:56.502Z,0
2018-06-15T02:06:05.915Z,0
2018-06-15T02:07:15.591Z,0
2018-06-15T02:08:24.764Z,0
2018-06-15T02:09:34.692Z,0
2018-06-15T02:10:43.584Z,0
2018-06-15T02:11:53.013Z,0
2018-06-15T02:13:02.435Z,0
2018-06-15T02:14:12.483Z,0
2018-06-15T02:15:21.396Z,0
2018-06-15T02:16:30.830Z,0
2018-06-15T02:17:39.478Z,0
2018-06-15T02:18:48.888Z,0
2018-06-15T02:19:58.553Z,0
2018-06-15T02:21:07.732Z,0
2018-06-15T02:22:17.394Z,0
2018-06-15T02:23:26.565Z,0
2018-06-15T02:24:35.999Z,0
2018-06-15T02:25:46.101Z,0
2018-06-15T02:26:55.512Z,0
2018-06-15T02:28:04.669Z,0
2018-06-15T02:29:14.086Z,0
2018-06-15T02:30:24.017Z,0
2018-06-15T02:31:33.189Z,0
2018-06-15T02:32:42.884Z,0
2018-06-15T02:33:52.478Z,0
2018-06-15T02:35:02.163Z,0
2018-06-15T02:36:11.331Z,0
2018-06-15T02:37:21.015Z,0
2018-06-15T02:38:30.959Z,0
2018-06-15T02:39:40.639Z,0
2018-06-15T02:40:50.559Z,0
2018-06-15T02:42:00.231Z,0
2018-06-15T02:43:09.405Z,0
2018-06-15T02:44:19.081Z,0
2018-06-15T02:45:28.951Z,0
2018-06-15T02:46:39.104Z,0
2018-06-15T02:47:48.017Z,0
2018-06-15T02:48:57.443Z,0
2018-06-15T02:50:06.338Z,0
2018-06-15T02:51:15.775Z,0
2018-06-15T02:52:25.711Z,0
2018-06-15T02:53:34.880Z,0
2018-06-15T02:54:44.312Z,0
2018-06-15T02:55:53.483Z,0
2018-06-15T02:57:02.639Z,0
2018-06-15T02:58:12.332Z,0
2018-06-15T02:59:22.010Z,0
2018-06-15T03:00:31.447Z,0
2018-06-15T03:01:40.607Z,0
2018-06-15T03:02:50.056Z,0
2018-06-15T03:03:59.463Z,0
2018-06-15T03:05:08.366Z,0
2018-06-15T03:06:17.606Z,0
2018-06-15T03:07:27.291Z,0
2018-06-15T03:08:36.990Z,0
2018-06-15T03:09:46.717Z,0
2018-06-15T03:10:56.405Z,0
2018-06-15T03:12:06.377Z,0
2018-06-15T03:13:16.337Z,0
2018-06-15T03:14:26.278Z,0
2018-06-15T03:15:36.196Z,0
2018-06-15T03:16:46.186Z,0
2018-06-15T03:17:55.589Z,0
2018-06-15T03:19:05.026Z,0
2018-06-15T03:20:15.197Z,0
2018-06-15T03:21:24.599Z,0
2018-06-15T03:22:33.483Z,0
2018-06-15T03:23:42.913Z,0
2018-06-15T03:24:52.336Z,0
2018-06-15T03:26:01.747Z,0
2018-06-15T03:27:10.904Z,0
2018-06-15T03:28:20.584Z,0
2018-06-15T03:29:29.744Z,0
2018-06-15T03:30:39.414Z,0
2018-06-15T03:31:49.147Z,0
2018-06-15T03:32:58.821Z,0
2018-06-15T03:34:08.490Z,0
2018-06-15T03:35:17.637Z,0
2018-06-15T03:36:27.046Z,0
2018-06-15T03:37:36.223Z,0
2018-06-15T03:38:45.390Z,0
2018-06-15T03:39:54.571Z,0
2018-06-15T03:41:04.248Z,0
2018-06-15T03:42:13.158Z,0
2018-06-15T03:43:22.331Z,0
2018-06-15T03:44:31.514Z,0
2018-06-15T03:45:41.462Z,0
2018-06-15T03:46:51.394Z,0
2018-06-15T03:48:01.138Z,0
2018-06-15T03:49:10.851Z,0
2018-06-15T03:50:20.291Z,0
2018-06-15T03:51:29.766Z,0
2018-06-15T03:52:39.770Z,0
2018-06-15T03:53:49.191Z,0
2018-06-15T03:54:58.617Z,0
2018-06-15T03:56:07.789Z,0
2018-06-15T03:57:17.011Z,0
2018-06-15T03:58:26.953Z,0
2018-06-15T03:59:35.863Z,0
2018-06-15T04:00:45.277Z,0
2018-06-15T04:01:54.233Z,0
2018-06-15T04:03:03.130Z,0
2018-06-15T04:04:12.549Z,0
2018-06-15T04:05:21.705Z,0
2018-06-15T04:06:31.151Z,0
2018-06-15T04:07:41.386Z,0
2018-06-15T04:08:51.017Z,0
2018-06-15T04:10:00.687Z,0
2018-06-15T04:11:10.112Z,0
2018-06-15T04:12:20.055Z,0
2018-06-15T04:13:30.008Z,0
2018-06-15T04:14:38.651Z,0
2018-06-15T04:15:48.089Z,0
2018-06-15T04:16:57.518Z,4
2018-06-15T04:18:06.938Z,4
2018-06-15T04:19:16.092Z,4
2018-06-15T04:20:25.501Z,4
2018-06-15T04:21:35.168Z,4
2018-06-15T04:22:45.269Z,4
2018-06-15T04:23:54.686Z,0
2018-06-15T04:25:04.347Z,0
2018-06-15T04:26:13.767Z,0
2018-06-15T04:27:23.446Z,0
2018-06-15T04:28:32.891Z,0
2018-06-15T04:29:42.557Z,0
2018-06-15T04:30:52.539Z,0
2018-06-15T04:32:01.950Z,4
2018-06-15T04:33:11.357Z,4
2018-06-15T04:34:21.037Z,4
2018-06-15T04:35:30.194Z,4
2018-06-15T04:36:39.347Z,4
2018-06-15T04:37:48.510Z,4
2018-06-15T04:38:57.425Z,4
2018-06-15T04:40:07.102Z,4
2018-06-15T04:41:16.268Z,4
2018-06-15T04:42:25.954Z,4
2018-06-15T04:43:35.150Z,4
2018-06-15T04:44:44.819Z,0
2018-06-15T04:45:54.238Z,0
2018-06-15T04:47:03.387Z,0
2018-06-15T04:48:13.071Z,4
2018-06-15T04:49:21.718Z,4
2018-06-15T04:50:31.134Z,4
2018-06-15T04:51:40.822Z,0
2018-06-15T04:52:50.004Z,0
2018-06-15T04:53:59.149Z,4
2018-06-15T04:55:08.560Z,4
2018-06-15T04:56:18.073Z,0
2018-06-15T04:57:27.837Z,0
2018-06-15T04:58:37.002Z,0
2018-06-15T04:59:46.707Z,0
2018-06-15T05:00:56.659Z,0
2018-06-15T05:02:06.094Z,0
2018-06-15T05:03:15.629Z,4
2018-06-15T05:04:24.935Z,4
2018-06-15T05:05:34.390Z,4
2018-06-15T05:06:44.358Z,4
2018-06-15T05:07:54.336Z,4
2018-06-15T05:09:03.511Z,4
2018-06-15T05:10:13.196Z,4
2018-06-15T05:11:22.878Z,4
2018-06-15T05:12:32.281Z,4
2018-06-15T05:13:41.953Z,0
2018-06-15T05:14:51.110Z,4
2018-06-15T05:16:00.541Z,4
2018-06-15T05:17:10.308Z,4
2018-06-15T05:18:19.447Z,4
2018-06-15T05:19:28.600Z,4
2018-06-15T05:20:38.006Z,4
2018-06-15T05:21:47.945Z,4
2018-06-15T05:22:57.377Z,4
2018-06-15T05:24:06.838Z,4
2018-06-15T05:25:16.520Z,4
2018-06-15T05:26:25.677Z,8
2018-06-15T05:27:34.886Z,4
2018-06-15T05:28:44.770Z,4
2018-06-15T05:29:54.723Z,4
2018-06-15T05:31:04.138Z,4
2018-06-15T05:32:13.601Z,4
2018-06-15T05:33:23.027Z,4
2018-06-15T05:34:32.455Z,4
2018-06-15T05:35:41.862Z,4
2018-06-15T05:36:51.057Z,8
2018-06-15T05:38:00.472Z,4
2018-06-15T05:39:09.893Z,4
2018-06-15T05:40:19.570Z,4
2018-06-15T05:41:28.727Z,4
2018-06-15T05:42:38.255Z,0
2018-06-15T05:43:47.786Z,0
2018-06-15T05:44:56.957Z,0
2018-06-15T05:46:06.639Z,4
2018-06-15T05:47:16.319Z,4
2018-06-15T05:48:25.768Z,8
2018-06-15T05:49:34.939Z,4
2018-06-15T05:50:44.102Z,4
2018-06-15T05:51:53.790Z,4
2018-06-15T05:53:02.991Z,4
2018-06-15T05:54:12.411Z,4
2018-06-15T05:55:21.817Z,4
2018-06-15T05:56:31.226Z,4
2018-06-15T05:57:40.920Z,4
2018-06-15T05:58:50.336Z,4
2018-06-15T05:59:59.528Z,4
2018-06-15T06:01:09.226Z,8
2018-06-15T06:02:18.394Z,8
2018-06-15T06:03:28.062Z,4
2018-06-15T06:04:37.781Z,4
2018-06-15T06:05:48.155Z,8
2018-06-15T06:06:58.720Z,8
2018-06-15T06:08:08.446Z,4
2018-06-15T06:09:17.337Z,8
2018-06-15T06:10:27.270Z,8
2018-06-15T06:11:37.208Z,4
2018-06-15T06:12:46.132Z,8
2018-06-15T06:13:55.307Z,4
2018-06-15T06:15:05.036Z,8
2018-06-15T06:16:14.467Z,8
2018-06-15T06:17:23.901Z,4
2018-06-15T06:18:33.819Z,8
2018-06-15T06:19:43.575Z,8
2018-06-15T06:20:53.346Z,8
2018-06-15T06:22:03.322Z,8
2018-06-15T06:23:12.246Z,8
2018-06-15T06:24:20.953Z,8
2018-06-15T06:25:30.411Z,8
2018-06-15T06:26:40.366Z,8
2018-06-15T06:27:50.132Z,8
2018-06-15T06:28:59.358Z,12
2018-06-15T06:30:09.072Z,8
2018-06-15T06:31:17.973Z,36
2018-06-15T06:32:27.408Z,8
2018-06-15T06:33:36.622Z,12
2018-06-15T06:34:46.045Z,16
2018-06-15T06:35:55.478Z,16
2018-06-15T06:37:05.168Z,8
2018-06-15T06:38:15.116Z,8
2018-06-15T06:39:24.786Z,4
2018-06-15T06:40:34.479Z,8
2018-06-15T06:41:43.377Z,8
2018-06-15T06:42:52.795Z,8
2018-06-15T06:44:01.975Z,12
2018-06-15T06:45:11.229Z,12
2018-06-15T06:46:20.132Z,16
2018-06-15T06:47:29.795Z,20
2018-06-15T06:48:39.472Z,24
2018-06-15T06:49:48.928Z,12
2018-06-15T06:50:58.348Z,12
2018-06-15T06:52:08.029Z,16
2018-06-15T06:53:17.994Z,8
2018-06-15T06:54:27.671Z,8
2018-06-15T06:55:37.100Z,8
2018-06-15T06:56:46.615Z,8
2018-06-15T06:57:55.803Z,8
2018-06-15T06:59:05.218Z,8
2018-06-15T07:00:14.389Z,8
2018-06-15T07:01:23.548Z,8
2018-06-15T07:02:32.731Z,8
2018-06-15T07:03:41.640Z,4
2018-06-15T07:04:51.570Z,8
2018-06-15T07:06:00.976Z,8
2018-06-15T07:07:10.662Z,8
2018-06-15T07:08:19.740Z,8
2018-06-15T07:09:29.445Z,4
2018-06-15T07:10:39.129Z,4
2018-06-15T07:11:48.807Z,8
2018-06-15T07:12:57.975Z,8
2018-06-15T07:14:07.908Z,8
2018-06-15T07:15:17.587Z,8
2018-06-15T07:16:27.028Z,8
2018-06-15T07:17:36.455Z,8
2018-06-15T07:18:46.192Z,8
2018-06-15T07:19:55.617Z,8
2018-06-15T07:21:04.806Z,8
2018-06-15T07:22:13.961Z,8
2018-06-15T07:23:23.659Z,8
2018-06-15T07:24:33.585Z,8
2018-06-15T07:25:42.511Z,12
2018-06-15T07:26:51.688Z,24
2018-06-15T07:28:00.864Z,12
2018-06-15T07:29:10.525Z,16
2018-06-15T07:30:20.215Z,12
2018-06-15T07:31:29.620Z,12
2018-06-15T07:32:39.069Z,12
2018-06-15T07:33:49.015Z,8
2018-06-15T07:34:58.213Z,8
2018-06-15T07:36:07.145Z,8
2018-06-15T07:37:16.885Z,8
2018-06-15T07:38:26.572Z,12
2018-06-15T07:39:36.001Z,8
2018-06-15T07:40:45.941Z,8
2018-06-15T07:41:54.859Z,12
2018-06-15T07:43:04.026Z,12
2018-06-15T07:44:12.939Z,8
2018-06-15T07:45:22.360Z,12
2018-06-15T07:46:31.767Z,8
2018-06-15T07:47:41.452Z,8
2018-06-15T07:48:50.370Z,12
2018-06-15T07:49:59.798Z,12
2018-06-15T07:51:08.736Z,12
2018-06-15T07:52:18.670Z,20
2018-06-15T07:53:28.593Z,20
2018-06-15T07:54:37.760Z,24
2018-06-15T07:55:47.168Z,20
2018-06-15T07:56:56.653Z,12
2018-06-15T07:58:06.333Z,8
2018-06-15T07:59:15.500Z,16
2018-06-15T08:00:24.696Z,28
2018-06-15T08:01:33.613Z,20
2018-06-15T08:02:43.044Z,12
2018-06-15T08:03:52.484Z,28
2018-06-15T08:05:01.670Z,24
2018-06-15T08:06:10.842Z,32
2018-06-15T08:07:20.543Z,28
2018-06-15T08:08:29.956Z,28
2018-06-15T08:09:38.871Z,20
2018-06-15T08:10:48.561Z,20
2018-06-15T08:11:58.008Z,20
2018-06-15T08:13:07.685Z,12
2018-06-15T08:14:16.888Z,24
2018-06-15T08:15:26.300Z,16
2018-06-15T08:16:35.462Z,12
2018-06-15T08:17:44.618Z,12
2018-06-15T08:18:54.036Z,20
2018-06-15T08:20:03.214Z,16
2018-06-15T08:21:12.637Z,16
2018-06-15T08:22:22.311Z,28
2018-06-15T08:23:31.488Z,32
2018-06-15T08:24:41.162Z,32
2018-06-15T08:25:50.324Z,12
2018-06-15T08:26:59.757Z,12
2018-06-15T08:28:09.706Z,12
2018-06-15T08:29:19.663Z,12
2018-06-15T08:30:29.084Z,12
2018-06-15T08:31:39.023Z,12
2018-06-15T08:32:48.226Z,12
2018-06-15T08:33:57.898Z,12
2018-06-15T08:35:07.328Z,12
2018-06-15T08:36:17.021Z,32
2018-06-15T08:37:25.936Z,16
2018-06-15T08:38:35.161Z,28
2018-06-15T08:39:44.605Z,20
2018-06-15T08:40:53.774Z,12
2018-06-15T08:42:03.732Z,16
2018-06-15T08:43:12.949Z,20
2018-06-15T08:44:22.644Z,12
2018-06-15T08:45:31.818Z,12
2018-06-15T08:46:41.500Z,12
2018-06-15T08:47:51.187Z,12
2018-06-15T08:49:00.601Z,12
2018-06-15T08:50:10.026Z,12
2018-06-15T08:51:19.281Z,12
2018-06-15T08:52:29.277Z,12
2018-06-15T08:53:38.698Z,8
2018-06-15T08:54:47.852Z,8
2018-06-15T08:55:57.013Z,12
2018-06-15T08:57:06.438Z,12
2018-06-15T08:58:15.845Z,12
2018-06-15T08:59:25.784Z,12
2018-06-15T09:00:35.462Z,12
2018-06-15T09:01:45.161Z,12
2018-06-15T09:02:54.317Z,8
2018-06-15T09:04:03.529Z,8
2018-06-15T09:05:12.437Z,8
2018-06-15T09:06:21.379Z,8
2018-06-15T09:07:31.065Z,4
2018-06-15T09:08:40.758Z,8
2018-06-15T09:09:50.171Z,8
2018-06-15T09:10:59.870Z,8
2018-06-15T09:12:08.794Z,8
2018-06-15T09:13:18.228Z,8
2018-06-15T09:14:27.953Z,8
2018-06-15T09:15:36.839Z,8
2018-06-15T09:16:46.785Z,8
2018-06-15T09:17:55.978Z,8
2018-06-15T09:19:05.138Z,4
2018-06-15T09:20:14.668Z,4
2018-06-15T09:21:24.112Z,8
2018-06-15T09:22:33.546Z,8
2018-06-15T09:23:42.717Z,8
2018-06-15T09:24:51.890Z,8
2018-06-15T09:26:01.066Z,8
2018-06-15T09:27:10.513Z,12
2018-06-15T09:28:19.699Z,8
2018-06-15T09:29:29.121Z,8
2018-06-15T09:30:38.600Z,12
2018-06-15T09:31:48.044Z,12
2018-06-15T09:32:57.246Z,16
2018-06-15T09:34:05.918Z,20
2018-06-15T09:35:15.665Z,36
2018-06-15T09:36:24.574Z,40
2018-06-15T09:37:34.271Z,40
2018-06-15T09:38:43.708Z,40
2018-06-15T09:39:53.138Z,40
2018-06-15T09:41:02.042Z,40
2018-06-15T09:42:12.179Z,40
2018-06-15T09:43:21.891Z,36
2018-06-15T09:44:31.566Z,16
2018-06-15T09:45:41.246Z,36
2018-06-15T09:46:50.937Z,44
2018-06-15T09:48:00.627Z,12
2018-06-15T09:49:10.040Z,8
2018-06-15T09:50:19.232Z,12
2018-06-15T09:51:28.408Z,12
2018-06-15T09:52:37.602Z,8
2018-06-15T09:53:47.052Z,12
2018-06-15T09:54:56.475Z,8
2018-06-15T09:56:05.925Z,8
2018-06-15T09:57:15.432Z,8
2018-06-15T09:58:24.597Z,8
2018-06-15T09:59:33.582Z,8
2018-06-15T10:00:43.093Z,4
2018-06-15T10:01:52.561Z,8
2018-06-15T10:03:02.030Z,8
2018-06-15T10:04:11.983Z,8
2018-06-15T10:05:21.044Z,8
2018-06-15T10:06:29.689Z,8
2018-06-15T10:07:39.124Z,24
2018-06-15T10:08:48.560Z,36
2018-06-15T10:09:57.726Z,32
2018-06-15T10:11:06.910Z,36
2018-06-15T10:12:16.060Z,32
2018-06-15T10:13:25.471Z,36
2018-06-15T10:14:34.903Z,36
2018-06-15T10:15:43.807Z,36
2018-06-15T10:16:53.827Z,36
2018-06-15T10:18:03.254Z,36
2018-06-15T10:19:12.421Z,36
2018-06-15T10:20:21.593Z,36
2018-06-15T10:21:30.759Z,36
2018-06-15T10:22:39.930Z,36
2018-06-15T10:23:49.358Z,20
2018-06-15T10:24:58.519Z,12
2018-06-15T10:26:07.954Z,36
2018-06-15T10:27:17.769Z,36
2018-06-15T10:28:27.273Z,40
2018-06-15T10:29:36.956Z,36
2018-06-15T10:30:46.380Z,12
2018-06-15T10:31:56.100Z,12
2018-06-15T10:33:05.881Z,32
2018-06-15T10:34:15.421Z,16
2018-06-15T10:35:24.346Z,16
2018-06-15T10:36:33.770Z,16
2018-06-15T10:37:43.179Z,36
2018-06-15T10:38:52.631Z,36
2018-06-15T10:40:01.549Z,28
2018-06-15T10:41:11.236Z,24
2018-06-15T10:42:20.652Z,12
2018-06-15T10:43:30.593Z,36
2018-06-15T10:44:40.341Z,36
2018-06-15T10:45:50.051Z,36
2018-06-15T10:46:59.237Z,32
2018-06-15T10:48:08.664Z,32
2018-06-15T10:49:17.318Z,36
2018-06-15T10:50:26.753Z,36
2018-06-15T10:51:36.165Z,36
2018-06-15T10:52:44.812Z,36
2018-06-15T10:53:54.738Z,32
2018-06-15T10:55:04.168Z,32
2018-06-15T10:56:13.710Z,20
2018-06-15T10:57:23.454Z,32
2018-06-15T10:58:32.372Z,36
2018-06-15T10:59:41.307Z,36
2018-06-15T11:00:50.465Z,36
2018-06-15T11:01:59.930Z,36
2018-06-15T11:03:08.835Z,32
2018-06-15T11:04:17.768Z,32
2018-06-15T11:05:27.448Z,36
2018-06-15T11:06:36.626Z,32
2018-06-15T11:07:46.058Z,32
2018-06-15T11:08:55.758Z,36
2018-06-15T11:10:05.276Z,32
2018-06-15T11:11:14.707Z,20
2018-06-15T11:12:23.944Z,20
2018-06-15T11:13:33.397Z,12
2018-06-15T11:14:42.827Z,32
2018-06-15T11:15:52.272Z,32
2018-06-15T11:17:01.513Z,32
2018-06-15T11:18:10.755Z,32
2018-06-15T11:19:20.184Z,32
2018-06-15T11:20:30.143Z,36
2018-06-15T11:21:39.574Z,28
2018-06-15T11:22:48.760Z,32
2018-06-15T11:23:58.219Z,28
2018-06-15T11:25:07.391Z,28
2018-06-15T11:26:16.817Z,28
2018-06-15T11:27:26.240Z,28
2018-06-15T11:28:35.140Z,28
2018-06-15T11:29:44.566Z,28
2018-06-15T11:30:53.253Z,24
2018-06-15T11:32:02.604Z,28
2018-06-15T11:33:12.032Z,28
2018-06-15T11:34:21.721Z,28
2018-06-15T11:35:30.622Z,28
2018-06-15T11:36:40.050Z,28
2018-06-15T11:37:49.492Z,28
2018-06-15T11:38:58.929Z,24
2018-06-15T11:40:08.106Z,28
2018-06-15T11:41:18.227Z,24
2018-06-15T11:42:27.934Z,24
2018-06-15T11:43:37.619Z,8
2018-06-15T11:44:47.298Z,8
2018-06-15T11:45:56.714Z,8
2018-06-15T11:47:05.615Z,8
2018-06-15T11:48:14.783Z,8
2018-06-15T11:49:23.680Z,8
2018-06-15T11:50:32.611Z,12
2018-06-15T11:51:41.773Z,12
2018-06-15T11:52:50.941Z,12
2018-06-15T11:54:00.370Z,16
2018-06-15T11:55:09.818Z,28
2018-06-15T11:56:18.970Z,16
2018-06-15T11:57:28.661Z,32
2018-06-15T11:58:38.257Z,36
2018-06-15T11:59:47.701Z,16
2018-06-15T12:00:57.192Z,16
2018-06-15T12:02:06.864Z,24
2018-06-15T12:03:16.365Z,24
2018-06-15T12:04:25.803Z,12
2018-06-15T12:05:34.734Z,12
2018-06-15T12:06:44.414Z,12
2018-06-15T12:07:53.639Z,12
2018-06-15T12:09:03.213Z,12
2018-06-15T12:10:12.664Z,8
2018-06-15T12:11:21.866Z,12
2018-06-15T12:12:31.303Z,16
2018-06-15T12:13:40.716Z,36
2018-06-15T12:14:50.392Z,36
2018-06-15T12:16:00.323Z,36
2018-06-15T12:17:09.784Z,36
2018-06-15T12:18:18.438Z,36
2018-06-15T12:19:27.632Z,40
2018-06-15T12:20:37.328Z,36
2018-06-15T12:21:46.533Z,40
2018-06-15T12:22:55.959Z,40
2018-06-15T12:24:05.137Z,40
2018-06-15T12:25:14.061Z,36
2018-06-15T12:26:23.480Z,40
2018-06-15T12:27:33.427Z,36
2018-06-15T12:28:42.668Z,40
2018-06-15T12:29:51.588Z,40
2018-06-15T12:31:01.019Z,44
2018-06-15T12:32:09.925Z,40
2018-06-15T12:33:19.357Z,40
2018-06-15T12:34:28.793Z,12
2018-06-15T12:35:38.200Z,40
2018-06-15T12:36:46.841Z,12
2018-06-15T12:37:56.286Z,12
2018-06-15T12:39:05.491Z,12
2018-06-15T12:40:14.955Z,12
2018-06-15T12:41:24.392Z,12
2018-06-15T12:42:34.091Z,12
2018-06-15T12:43:43.784Z,24
2018-06-15T12:44:53.196Z,44
2018-06-15T12:46:03.044Z,44
2018-06-15T12:47:12.588Z,44
2018-06-15T12:48:22.452Z,48
2018-06-15T12:49:32.143Z,48
2018-06-15T12:50:41.585Z,44
2018-06-15T12:51:51.531Z,48
2018-06-15T12:53:00.456Z,28
2018-06-15T12:54:09.650Z,48
2018-06-15T12:55:18.845Z,48
2018-06-15T12:56:28.541Z,48
2018-06-15T12:57:37.971Z,48
2018-06-15T12:58:47.436Z,48
2018-06-15T12:59:56.918Z,48
2018-06-15T13:01:06.339Z,48
2018-06-15T13:02:16.284Z,52
2018-06-15T13:03:25.971Z,8
2018-06-15T13:04:35.404Z,8
2018-06-15T13:05:44.578Z,8
2018-06-15T13:06:54.303Z,16
2018-06-15T13:08:04.461Z,48
2018-06-15T13:09:14.621Z,52
2018-06-15T13:10:24.050Z,48
2018-06-15T13:11:33.218Z,44
2018-06-15T13:12:42.391Z,48
2018-06-15T13:13:51.300Z,48
2018-06-15T13:15:00.718Z,40
2018-06-15T13:16:09.919Z,32
2018-06-15T13:17:19.591Z,52
2018-06-15T13:18:28.759Z,52
2018-06-15T13:19:37.934Z,60
2018-06-15T13:20:46.613Z,56
2018-06-15T13:21:55.790Z,52
2018-06-15T13:23:04.952Z,56
2018-06-15T13:24:13.890Z,60
2018-06-15T13:25:23.318Z,56
2018-06-15T13:26:32.741Z,12
2018-06-15T13:27:42.164Z,52
2018-06-15T13:28:52.095Z,28
2018-06-15T13:30:01.237Z,32
2018-06-15T13:31:10.759Z,16
2018-06-15T13:32:20.700Z,60
2018-06-15T13:33:30.183Z,60
2018-06-15T13:34:40.118Z,64
2018-06-15T13:35:50.074Z,64
2018-06-15T13:37:00.014Z,12
2018-06-15T13:38:08.686Z,64
2018-06-15T13:39:17.839Z,16
2018-06-15T13:40:27.018Z,64
2018-06-15T13:41:36.206Z,68
2018-06-15T13:42:45.368Z,68
2018-06-15T13:43:55.077Z,16
2018-06-15T13:45:04.242Z,64
2018-06-15T13:46:13.678Z,68
2018-06-15T13:47:22.853Z,68
2018-06-15T13:48:32.533Z,64
2018-06-15T13:49:42.208Z,40
2018-06-15T13:50:51.607Z,64
2018-06-15T13:52:01.388Z,60
2018-06-15T13:53:10.806Z,64
2018-06-15T13:54:20.491Z,64
2018-06-15T13:55:29.688Z,64
2018-06-15T13:56:39.396Z,68
2018-06-15T13:57:48.812Z,68
2018-06-15T13:58:58.221Z,64
2018-06-15T14:00:07.392Z,64
2018-06-15T14:01:16.571Z,68
2018-06-15T14:02:26.293Z,64
2018-06-15T14:03:35.468Z,64
2018-06-15T14:04:44.389Z,64
2018-06-15T14:05:53.567Z,64
2018-06-15T14:07:03.928Z,64
2018-06-15T14:08:13.561Z,64
2018-06-15T14:09:23.026Z,64
2018-06-15T14:10:31.937Z,8
2018-06-15T14:11:41.869Z,4
2018-06-15T14:12:51.788Z,8
2018-06-15T14:14:01.542Z,8
2018-06-15T14:15:11.228Z,4
2018-06-15T14:16:20.920Z,4
2018-06-15T14:17:30.602Z,8
2018-06-15T14:18:40.077Z,40
2018-06-15T14:19:49.791Z,60
2018-06-15T14:20:59.492Z,60
2018-06-15T14:22:08.922Z,60
2018-06-15T14:23:18.333Z,60
2018-06-15T14:24:26.992Z,52
2018-06-15T14:25:36.437Z,56
2018-06-15T14:26:46.126Z,52
2018-06-15T14:27:55.305Z,36
2018-06-15T14:29:04.468Z,52
2018-06-15T14:30:13.895Z,52
2018-06-15T14:31:23.591Z,32
2018-06-15T14:32:32.772Z,8
2018-06-15T14:33:41.702Z,12
2018-06-15T14:34:50.877Z,52
2018-06-15T14:36:00.584Z,56
2018-06-15T14:37:10.278Z,52
2018-06-15T14:38:19.436Z,12
2018-06-15T14:39:28.612Z,48
2018-06-15T14:40:38.161Z,48
2018-06-15T14:41:47.346Z,48
2018-06-15T14:42:56.248Z,44
2018-06-15T14:44:05.694Z,20
2018-06-15T14:45:15.119Z,40
2018-06-15T14:46:25.228Z,40
2018-06-15T14:47:34.641Z,16
2018-06-15T14:48:44.104Z,36
2018-06-15T14:49:53.556Z,36
2018-06-15T14:51:02.474Z,36
2018-06-15T14:52:11.653Z,36
2018-06-15T14:53:21.348Z,40
2018-06-15T14:54:30.816Z,36
2018-06-15T14:55:40.060Z,36
2018-06-15T14:56:50.051Z,36
2018-06-15T14:57:59.779Z,24
2018-06-15T14:59:08.688Z,32
2018-06-15T15:00:17.603Z,32
2018-06-15T15:01:26.602Z,32
2018-06-15T15:02:35.233Z,32
2018-06-15T15:03:44.428Z,24
2018-06-15T15:04:54.171Z,32
2018-06-15T15:06:03.928Z,32
2018-06-15T15:07:13.338Z,28
2018-06-15T15:08:22.545Z,28
2018-06-15T15:09:31.989Z,28
2018-06-15T15:10:41.972Z,12
2018-06-15T15:11:51.400Z,12
2018-06-15T15:13:00.833Z,20
2018-06-15T15:14:10.256Z,28
2018-06-15T15:15:19.153Z,24
2018-06-15T15:16:29.104Z,28
2018-06-15T15:17:38.529Z,28
2018-06-15T15:18:47.470Z,28
2018-06-15T15:19:56.940Z,20
2018-06-15T15:21:06.117Z,24
2018-06-15T15:22:15.803Z,24
2018-06-15T15:23:25.734Z,8
2018-06-15T15:24:34.912Z,8
2018-06-15T15:25:44.348Z,16
2018-06-15T15:26:53.758Z,16
2018-06-15T15:28:03.179Z,12
2018-06-15T15:29:12.871Z,12
2018-06-15T15:30:21.790Z,8
2018-06-15T15:31:31.482Z,8
2018-06-15T15:32:41.476Z,8
2018-06-15T15:33:50.664Z,8
2018-06-15T15:34:59.839Z,8
2018-06-15T15:36:09.061Z,8
2018-06-15T15:37:18.733Z,12
2018-06-15T15:38:28.421Z,12
2018-06-15T15:39:37.853Z,8
2018-06-15T15:40:47.846Z,8
2018-06-15T15:41:57.276Z,8
2018-06-15T15:43:06.448Z,8
2018-06-15T15:44:16.382Z,8
2018-06-15T15:45:25.845Z,8
2018-06-15T15:46:35.012Z,12
2018-06-15T15:47:44.435Z,12
2018-06-15T15:48:53.621Z,8
2018-06-15T15:50:03.328Z,8
2018-06-15T15:51:12.738Z,8
2018-06-15T15:52:21.928Z,8
2018-06-15T15:53:31.099Z,8
2018-06-15T15:54:40.266Z,4
2018-06-15T15:55:49.463Z,4
2018-06-15T15:56:58.642Z,4
2018-06-15T15:58:07.582Z,8
2018-06-15T15:59:16.565Z,8
2018-06-15T16:00:25.992Z,4
2018-06-15T16:01:35.167Z,8
2018-06-15T16:02:44.895Z,8
2018-06-15T16:03:54.579Z,8
2018-06-15T16:05:03.475Z,8
2018-06-15T16:06:12.395Z,8
2018-06-15T16:07:21.972Z,8
2018-06-15T16:08:31.769Z,4
2018-06-15T16:09:40.925Z,8
2018-06-15T16:10:50.364Z,8
2018-06-15T16:12:00.071Z,8
2018-06-15T16:13:09.537Z,8
2018-06-15T16:14:19.258Z,8
2018-06-15T16:15:28.721Z,8
2018-06-15T16:16:38.163Z,8
2018-06-15T16:17:47.613Z,8
2018-06-15T16:18:57.023Z,8
2018-06-15T16:20:05.942Z,8
2018-06-15T16:21:15.899Z,8
2018-06-15T16:22:25.059Z,8
2018-06-15T16:23:34.773Z,8
2018-06-15T16:24:44.274Z,8
2018-06-15T16:25:53.721Z,8
2018-06-15T16:27:03.202Z,4
2018-06-15T16:28:13.139Z,4
2018-06-15T16:29:22.555Z,8
2018-06-15T16:30:31.991Z,8
2018-06-15T16:31:41.163Z,8
2018-06-15T16:32:50.836Z,8
2018-06-15T16:34:00.527Z,8
2018-06-15T16:35:09.940Z,8
2018-06-15T16:36:19.659Z,8
2018-06-15T16:37:28.943Z,8
2018-06-15T16:38:38.623Z,4
2018-06-15T16:39:47.793Z,4
2018-06-15T16:40:56.988Z,4
2018-06-15T16:42:06.142Z,4
2018-06-15T16:43:15.901Z,4
2018-06-15T16:44:25.665Z,4
2018-06-15T16:45:35.339Z,4
2018-06-15T16:46:45.034Z,4
2018-06-15T16:47:54.457Z,4
2018-06-15T16:49:03.619Z,4
2018-06-15T16:50:12.251Z,4